createdAt,value
2018-12-29T00:00:54.222Z,84.67
2018-12-29T00:02:23.754Z,85.09
2018-12-29T00:03:53.414Z,85.23
2018-12-29T00:05:24.513Z,84.96
2018-12-29T00:06:55.197Z,84.62
2018-12-29T00:08:25.965Z,84.72
2018-12-29T00:09:56.243Z,84.79
2018-12-29T00:11:26.214Z,84.63
2018-12-29T00:12:56.666Z,84.80
2018-12-29T00:14:27.366Z,85.25
2018-12-29T00:15:56.911Z,85.22
2018-12-29T00:17:26.434Z,85.40
2018-12-29T00:18:55.978Z,84.54
2018-12-29T00:20:33.098Z,84.33
2018-12-29T00:22:03.711Z,84.68
2018-12-29T00:23:33.251Z,84.72
2018-12-29T00:25:02.966Z,84.83
2018-12-29T00:26:32.837Z,84.90
2018-12-29T00:28:02.529Z,84.97
2018-12-29T00:29:32.473Z,84.84
2018-12-29T00:31:02.255Z,84.83
2018-12-29T00:32:31.789Z,84.63
2018-12-29T00:34:01.337Z,84.65
2018-12-29T00:35:31.015Z,84.92
2018-12-29T00:37:00.541Z,84.91
2018-12-29T00:38:30.068Z,84.90
2018-12-29T00:39:59.612Z,85.04
2018-12-29T00:41:29.611Z,85.09
2018-12-29T00:42:59.285Z,84.44
2018-12-29T00:44:28.937Z,84.29
2018-12-29T00:45:58.490Z,84.65
2018-12-29T00:47:28.299Z,84.52
2018-12-29T00:48:57.872Z,84.69
2018-12-29T00:50:27.894Z,84.97
2018-12-29T00:51:57.417Z,84.80
2018-12-29T00:53:27.285Z,84.74
2018-12-29T00:54:56.939Z,85.02
2018-12-29T00:56:26.462Z,85.04
2018-12-29T00:57:56.139Z,85.13
2018-12-29T00:59:25.676Z,85.13
2018-12-29T01:00:55.480Z,85.01
2018-12-29T01:02:25.010Z,84.54
2018-12-29T01:03:54.531Z,84.78
2018-12-29T01:05:24.107Z,85.00
2018-12-29T01:06:53.624Z,85.12
2018-12-29T01:08:26.756Z,85.14
2018-12-29T01:09:59.830Z,85.23
2018-12-29T01:11:29.354Z,85.13
2018-12-29T01:12:58.863Z,85.07
2018-12-29T01:14:28.542Z,84.38
2018-12-29T01:15:58.406Z,84.21
2018-12-29T01:17:28.042Z,84.52
2018-12-29T01:18:57.595Z,84.69
2018-12-29T01:20:27.547Z,84.79
2018-12-29T01:21:57.348Z,84.66
2018-12-29T01:23:26.900Z,84.45
2018-12-29T01:24:56.749Z,84.31
2018-12-29T01:26:26.275Z,84.42
2018-12-29T01:27:56.876Z,84.56
2018-12-29T01:29:26.632Z,85.01
2018-12-29T01:31:05.908Z,85.20
2018-12-29T01:33:15.263Z,85.07
2018-12-29T01:34:44.785Z,84.93
2018-12-29T01:36:14.411Z,85.16
2018-12-29T01:37:44.036Z,85.23
2018-12-29T01:39:13.616Z,85.12
2018-12-29T01:40:43.136Z,85.15
2018-12-29T01:42:12.973Z,85.17
2018-12-29T01:43:42.493Z,85.02
2018-12-29T01:45:17.421Z,84.96
2018-12-29T01:46:43.439Z,84.86
2018-12-29T01:48:13.284Z,84.76
2018-12-29T01:49:42.787Z,84.59
2018-12-29T01:51:12.681Z,84.41
2018-12-29T01:52:42.570Z,84.63
2018-12-29T01:54:12.109Z,84.73
2018-12-29T01:55:41.642Z,84.65
2018-12-29T01:57:11.224Z,84.49
2018-12-29T01:58:40.830Z,84.35
2018-12-29T02:00:10.807Z,84.28
2018-12-29T02:01:40.383Z,84.19
2018-12-29T02:03:09.894Z,83.99
2018-12-29T02:04:39.701Z,83.78
2018-12-29T02:06:09.272Z,84.18
2018-12-29T02:07:38.788Z,84.12
2018-12-29T02:09:08.396Z,84.20
2018-12-29T02:10:37.922Z,84.18
2018-12-29T02:12:07.440Z,83.99
2018-12-29T02:13:36.958Z,83.95
2018-12-29T02:15:06.570Z,83.65
2018-12-29T02:16:36.090Z,83.74
2018-12-29T02:18:05.608Z,84.05
2018-12-29T02:19:35.104Z,84.09
2018-12-29T02:21:04.629Z,84.06
2018-12-29T02:22:34.568Z,83.98
2018-12-29T02:24:04.105Z,84.09
2018-12-29T02:25:33.936Z,84.17
2018-12-29T02:27:03.467Z,84.41
2018-12-29T02:28:32.999Z,84.42
2018-12-29T02:30:02.904Z,84.33
2018-12-29T02:31:32.959Z,84.17
2018-12-29T02:33:02.705Z,83.96
2018-12-29T02:34:32.202Z,83.39
2018-12-29T02:36:01.724Z,83.46
2018-12-29T02:37:31.446Z,84.07
2018-12-29T02:39:00.969Z,84.34
2018-12-29T02:40:30.808Z,84.42
2018-12-29T02:42:00.353Z,84.48
2018-12-29T02:43:29.861Z,84.37
2018-12-29T02:44:59.384Z,84.33
2018-12-29T02:46:28.904Z,84.23
2018-12-29T02:47:58.416Z,83.99
2018-12-29T02:49:28.275Z,83.44
2018-12-29T02:50:57.894Z,83.42
2018-12-29T02:52:27.392Z,83.55
2018-12-29T02:53:56.925Z,83.59
2018-12-29T02:55:26.439Z,83.63
2018-12-29T02:56:56.031Z,83.45
2018-12-29T02:58:25.545Z,83.34
2018-12-29T02:59:55.039Z,83.32
2018-12-29T03:01:24.567Z,83.39
2018-12-29T03:02:54.072Z,83.52
2018-12-29T03:04:23.578Z,83.71
2018-12-29T03:05:53.093Z,83.69
2018-12-29T03:07:22.635Z,83.87
2018-12-29T03:08:52.138Z,83.83
2018-12-29T03:10:21.674Z,83.79
2018-12-29T03:11:51.461Z,83.63
2018-12-29T03:13:21.381Z,83.61
2018-12-29T03:14:51.055Z,83.66
2018-12-29T03:16:20.553Z,83.75
2018-12-29T03:17:50.389Z,83.72
2018-12-29T03:19:19.874Z,83.58
2018-12-29T03:20:49.387Z,83.25
2018-12-29T03:22:18.919Z,83.00
2018-12-29T03:23:48.422Z,83.18
2018-12-29T03:25:17.922Z,83.27
2018-12-29T03:26:47.455Z,83.37
2018-12-29T03:28:17.229Z,83.13
2018-12-29T03:29:46.765Z,83.02
2018-12-29T03:31:16.394Z,83.20
2018-12-29T03:32:45.909Z,83.28
2018-12-29T03:34:15.427Z,83.37
2018-12-29T03:35:44.999Z,83.37
2018-12-29T03:37:14.546Z,83.35
2018-12-29T03:38:44.299Z,83.44
2018-12-29T03:40:14.165Z,83.73
2018-12-29T03:41:43.785Z,83.95
2018-12-29T03:43:13.293Z,84.00
2018-12-29T03:44:42.811Z,84.28
2018-12-29T03:46:12.789Z,84.26
2018-12-29T03:47:42.605Z,84.12
2018-12-29T03:49:12.395Z,83.93
2018-12-29T03:50:42.324Z,83.74
2018-12-29T03:52:12.052Z,83.59
2018-12-29T03:53:53.670Z,83.62
2018-12-29T03:55:23.309Z,83.53
2018-12-29T03:56:53.292Z,83.44
2018-12-29T03:58:22.988Z,83.86
2018-12-29T03:59:52.497Z,84.02
2018-12-29T04:01:22.023Z,83.97
2018-12-29T04:02:51.550Z,83.85
2018-12-29T04:04:21.089Z,83.70
2018-12-29T04:05:50.597Z,83.61
2018-12-29T04:07:20.100Z,83.67
2018-12-29T04:09:26.716Z,83.69
2018-12-29T04:10:56.426Z,84.15
2018-12-29T04:12:28.514Z,84.37
2018-12-29T04:13:58.008Z,84.44
2018-12-29T04:16:38.958Z,84.90
2018-12-29T04:18:17.868Z,84.83
2018-12-29T04:19:47.918Z,84.92
2018-12-29T04:21:17.718Z,85.35
2018-12-29T04:22:47.421Z,85.78
2018-12-29T04:24:18.059Z,85.75
2018-12-29T04:25:47.768Z,85.83
2018-12-29T04:27:17.450Z,85.98
2018-12-29T04:31:00.597Z,85.72
2018-12-29T04:32:30.480Z,85.32
2018-12-29T04:34:00.311Z,85.23
2018-12-29T04:35:30.323Z,84.77
2018-12-29T04:37:00.187Z,84.33
2018-12-29T04:38:29.717Z,84.32
2018-12-29T04:39:59.217Z,84.35
2018-12-29T04:41:28.721Z,84.48
2018-12-29T04:42:58.231Z,84.61
2018-12-29T04:44:27.763Z,84.63
2018-12-29T04:45:57.411Z,84.65
2018-12-29T04:47:27.218Z,84.83
2018-12-29T04:48:56.900Z,84.97
2018-12-29T04:50:26.422Z,84.82
2018-12-29T04:51:56.282Z,84.63
2018-12-29T04:53:25.833Z,84.55
2018-12-29T04:54:55.330Z,84.49
2018-12-29T04:56:25.066Z,84.60
2018-12-29T04:57:54.605Z,84.61
2018-12-29T04:59:24.405Z,84.83
2018-12-29T05:00:54.208Z,84.83
2018-12-29T05:02:23.748Z,84.84
2018-12-29T05:03:53.351Z,84.78
2018-12-29T05:05:23.131Z,84.67
2018-12-29T05:06:52.636Z,84.60
2018-12-29T05:08:22.283Z,84.82
2018-12-29T05:09:52.339Z,85.31
2018-12-29T05:11:22.240Z,85.91
2018-12-29T05:12:51.742Z,85.93
2018-12-29T05:14:21.521Z,85.54
2018-12-29T05:15:51.027Z,85.60
2018-12-29T05:17:20.870Z,85.53
2018-12-29T05:18:50.813Z,85.57
2018-12-29T05:20:20.667Z,85.72
2018-12-29T05:21:50.475Z,86.40
2018-12-29T05:23:20.010Z,86.84
2018-12-29T05:24:49.548Z,86.90
2018-12-29T05:26:19.050Z,86.55
2018-12-29T05:27:48.851Z,86.38
2018-12-29T05:29:25.917Z,86.71
2018-12-29T05:30:55.440Z,86.89
2018-12-29T05:32:25.286Z,86.58
2018-12-29T05:33:55.381Z,86.41
2018-12-29T05:35:24.912Z,86.22
2018-12-29T05:36:54.606Z,86.05
2018-12-29T05:38:24.297Z,86.00
2018-12-29T05:39:53.824Z,86.39
2018-12-29T05:41:23.494Z,86.33
2018-12-29T05:42:53.018Z,86.07
2018-12-29T05:44:22.770Z,85.84
2018-12-29T05:45:52.943Z,85.59
2018-12-29T05:47:22.670Z,85.34
2018-12-29T05:48:52.453Z,85.35
2018-12-29T05:50:22.031Z,85.36
2018-12-29T05:51:51.644Z,85.29
2018-12-29T05:53:21.149Z,85.31
2018-12-29T05:54:51.309Z,85.34
2018-12-29T05:56:21.173Z,85.81
2018-12-29T05:57:51.034Z,85.96
2018-12-29T05:59:20.565Z,85.82
2018-12-29T06:00:50.160Z,85.85
2018-12-29T06:02:20.084Z,86.09
2018-12-29T06:03:49.632Z,86.50
2018-12-29T06:05:19.403Z,86.54
2018-12-29T06:06:49.294Z,86.76
2018-12-29T06:08:18.858Z,87.05
2018-12-29T06:09:48.413Z,86.94
2018-12-29T06:11:18.221Z,86.72
2018-12-29T06:12:47.709Z,86.50
2018-12-29T06:14:17.599Z,86.55
2018-12-29T06:15:47.104Z,86.88
2018-12-29T06:17:47.429Z,86.85
2018-12-29T06:19:16.920Z,86.75
2018-12-29T06:20:46.434Z,87.09
2018-12-29T06:22:15.940Z,87.02
2018-12-29T06:23:45.871Z,86.92
2018-12-29T06:25:15.565Z,87.11
2018-12-29T06:26:45.087Z,87.22
2018-12-29T06:28:14.808Z,86.92
2018-12-29T06:29:44.369Z,86.72
2018-12-29T06:31:13.900Z,86.50
2018-12-29T06:32:43.436Z,86.43
2018-12-29T06:34:12.931Z,86.42
2018-12-29T06:35:42.468Z,86.40
2018-12-29T06:37:11.999Z,86.42
2018-12-29T06:38:41.533Z,86.85
2018-12-29T06:40:11.464Z,86.97
2018-12-29T06:41:40.966Z,87.08
2018-12-29T06:43:10.479Z,87.07
2018-12-29T06:44:40.008Z,87.41
2018-12-29T06:48:53.966Z,87.36
2018-12-29T06:50:23.455Z,87.17
2018-12-29T06:51:53.175Z,87.07
2018-12-29T06:53:22.690Z,87.11
2018-12-29T06:54:52.449Z,87.31
2018-12-29T06:56:21.972Z,87.33
2018-12-29T06:57:51.686Z,87.15
2018-12-29T06:59:21.338Z,87.07
2018-12-29T07:00:51.212Z,86.89
2018-12-29T07:02:20.915Z,86.86
2018-12-29T07:03:50.430Z,86.81
2018-12-29T07:05:19.934Z,86.64
2018-12-29T07:07:01.523Z,86.61
2018-12-29T07:08:31.090Z,86.64
2018-12-29T07:10:00.599Z,87.33
2018-12-29T07:11:30.127Z,88.08
2018-12-29T07:12:59.656Z,88.29
2018-12-29T07:14:29.164Z,88.25
2018-12-29T07:15:58.688Z,88.53
2018-12-29T07:17:28.749Z,88.96
2018-12-29T07:18:58.321Z,88.75
2018-12-29T07:20:28.238Z,88.17
2018-12-29T07:21:57.758Z,87.86
2018-12-29T07:23:27.813Z,87.66
2018-12-29T07:24:57.460Z,87.37
2018-12-29T07:26:28.419Z,87.26
2018-12-29T07:27:57.996Z,87.29
2018-12-29T07:29:28.349Z,87.17
2018-12-29T07:30:58.112Z,87.08
2018-12-29T07:32:28.326Z,87.40
2018-12-29T07:33:58.299Z,87.97
2018-12-29T07:35:29.417Z,87.90
2018-12-29T07:36:58.922Z,87.29
2018-12-29T07:38:28.464Z,87.48
2018-12-29T07:39:57.999Z,87.92
2018-12-29T07:41:27.932Z,88.53
2018-12-29T07:42:57.617Z,88.63
2018-12-29T07:44:42.478Z,88.25
2018-12-29T07:46:14.901Z,87.90
2018-12-29T07:47:44.440Z,88.12
2018-12-29T07:49:14.360Z,88.68
2018-12-29T07:50:43.925Z,89.14
2018-12-29T07:52:13.593Z,89.58
2018-12-29T07:53:43.848Z,89.18
2018-12-29T07:55:17.942Z,88.82
2018-12-29T07:56:50.866Z,88.75
2018-12-29T07:58:21.116Z,88.46
2018-12-29T07:59:58.948Z,88.28
2018-12-29T08:01:29.723Z,88.22
2018-12-29T08:03:00.743Z,88.12
2018-12-29T08:04:33.793Z,87.91
2018-12-29T08:06:07.672Z,87.61
2018-12-29T08:07:42.375Z,87.13
2018-12-29T08:09:14.159Z,87.04
2018-12-29T08:11:08.076Z,87.20
2018-12-29T08:12:40.923Z,87.68
2018-12-29T08:14:15.161Z,87.65
2018-12-29T08:15:45.389Z,87.39
2018-12-29T08:17:20.374Z,87.29
2018-12-29T08:18:57.194Z,87.49
2018-12-29T08:20:32.632Z,87.29
2018-12-29T08:22:02.772Z,87.34
2018-12-29T08:23:45.783Z,87.07
2018-12-29T08:25:22.905Z,86.95
2018-12-29T08:27:17.397Z,86.82
2018-12-29T08:31:10.173Z,86.31
2018-12-29T08:32:45.716Z,86.51
2018-12-29T08:34:17.123Z,86.97
2018-12-29T08:35:47.459Z,87.00
2018-12-29T08:37:17.480Z,86.68
2018-12-29T08:38:50.718Z,86.38
2018-12-29T08:40:21.258Z,86.63
2018-12-29T08:41:52.008Z,86.56
2018-12-29T08:43:24.269Z,87.08
2018-12-29T08:44:57.295Z,87.32
2018-12-29T08:46:27.544Z,87.56
2018-12-29T08:48:04.611Z,87.42
2018-12-29T08:49:38.506Z,86.96
2018-12-29T08:51:11.845Z,86.91
2018-12-29T08:52:45.738Z,87.21
2018-12-29T08:54:22.457Z,87.16
2018-12-29T08:55:53.435Z,86.90
2018-12-29T08:57:26.477Z,86.70
2018-12-29T08:59:00.520Z,86.55
2018-12-29T09:00:31.110Z,86.39
2018-12-29T09:02:04.336Z,86.03
2018-12-29T09:03:38.786Z,85.95
2018-12-29T09:05:12.844Z,85.98
2018-12-29T09:06:44.238Z,85.91
2018-12-29T09:08:19.589Z,85.85
2018-12-29T09:09:49.421Z,85.88
2018-12-29T09:11:23.686Z,86.02
2018-12-29T09:12:53.671Z,86.13
2018-12-29T09:14:23.892Z,85.87
2018-12-29T09:15:53.969Z,85.86
2018-12-29T09:17:23.748Z,85.83
2018-12-29T09:18:54.465Z,85.86
2018-12-29T09:20:24.280Z,86.00
2018-12-29T09:21:54.180Z,86.10
2018-12-29T09:23:24.089Z,86.01
2018-12-29T09:24:54.063Z,85.92
2018-12-29T09:26:24.543Z,85.89
2018-12-29T09:27:54.396Z,85.77
2018-12-29T09:29:24.595Z,85.60
2018-12-29T09:30:54.793Z,85.08
2018-12-29T09:32:24.963Z,84.78
2018-12-29T09:33:54.705Z,84.74
2018-12-29T09:35:24.610Z,85.03
2018-12-29T09:36:54.487Z,84.84
2018-12-29T09:38:24.417Z,84.88
2018-12-29T09:39:54.484Z,85.07
2018-12-29T09:41:25.374Z,85.14
2018-12-29T09:42:55.347Z,84.98
2018-12-29T09:44:25.298Z,84.80
2018-12-29T09:45:55.278Z,84.42
2018-12-29T09:47:25.241Z,84.36
2018-12-29T09:48:55.074Z,84.23
2018-12-29T09:50:24.952Z,83.87
2018-12-29T09:51:57.806Z,83.62
2018-12-29T09:53:27.901Z,83.34
2018-12-29T09:54:58.073Z,82.71
2018-12-29T09:56:27.987Z,82.68
2018-12-29T09:57:57.870Z,82.16
2018-12-29T09:59:48.964Z,82.15
2018-12-29T10:01:18.741Z,81.65
2018-12-29T10:02:48.621Z,81.46
2018-12-29T10:04:18.423Z,80.97
2018-12-29T10:05:48.795Z,80.62
2018-12-29T10:07:18.707Z,80.68
2018-12-29T10:08:51.997Z,80.50
2018-12-29T10:10:21.703Z,79.87
2018-12-29T10:11:51.443Z,79.29
2018-12-29T10:13:21.281Z,79.43
2018-12-29T10:14:51.132Z,78.40
2018-12-29T10:16:21.282Z,78.91
2018-12-29T10:17:51.360Z,79.57
2018-12-29T10:19:21.417Z,79.70
2018-12-29T10:20:51.399Z,79.41
2018-12-29T10:22:21.619Z,79.27
2018-12-29T10:23:51.340Z,78.95
2018-12-29T10:25:21.921Z,78.80
2018-12-29T10:26:52.030Z,79.42
2018-12-29T10:28:22.185Z,79.13
2018-12-29T10:30:23.068Z,79.31
2018-12-29T10:31:52.911Z,79.10
2018-12-29T10:33:23.171Z,79.21
2018-12-29T10:34:52.840Z,79.00
2018-12-29T10:36:22.671Z,78.86
2018-12-29T10:37:52.345Z,78.26
2018-12-29T10:39:22.561Z,78.23
2018-12-29T10:40:52.482Z,78.32
2018-12-29T10:42:22.808Z,78.35
2018-12-29T10:43:52.835Z,78.13
2018-12-29T10:45:22.601Z,78.34
2018-12-29T10:46:52.421Z,78.79
2018-12-29T10:48:22.026Z,78.82
2018-12-29T10:49:51.847Z,78.83
2018-12-29T10:51:21.747Z,78.72
2018-12-29T10:52:51.520Z,78.94
2018-12-29T10:54:21.933Z,78.91
2018-12-29T10:55:52.168Z,78.43
2018-12-29T10:57:22.060Z,78.63
2018-12-29T10:59:01.149Z,78.64
2018-12-29T11:02:19.263Z,78.45
2018-12-29T11:03:49.134Z,78.30
2018-12-29T11:05:18.857Z,77.91
2018-12-29T11:06:49.242Z,77.99
2018-12-29T11:08:18.965Z,78.19
2018-12-29T11:09:48.539Z,78.27
2018-12-29T11:11:18.505Z,78.02
2018-12-29T11:12:48.431Z,78.45
2018-12-29T11:14:18.857Z,78.75
2018-12-29T11:15:48.710Z,78.82
2018-12-29T11:17:18.747Z,78.57
2018-12-29T11:18:49.191Z,78.26
2018-12-29T11:20:19.470Z,78.52
2018-12-29T11:21:55.997Z,78.52
2018-12-29T11:23:26.270Z,77.95
2018-12-29T11:24:57.024Z,77.90
2018-12-29T11:26:27.027Z,77.81
2018-12-29T11:27:57.161Z,77.72
2018-12-29T11:29:27.214Z,76.97
2018-12-29T11:31:01.758Z,77.35
2018-12-29T11:32:32.226Z,77.28
2018-12-29T11:34:05.548Z,76.79
2018-12-29T11:35:36.377Z,77.21
2018-12-29T11:37:06.379Z,76.79
2018-12-29T11:38:36.889Z,77.17
2018-12-29T11:40:07.899Z,77.63
2018-12-29T11:41:37.721Z,78.00
2018-12-29T11:43:07.960Z,78.19
2018-12-29T11:44:38.074Z,78.74
2018-12-29T11:46:10.356Z,79.14
2018-12-29T11:47:40.745Z,79.33
2018-12-29T11:49:17.866Z,79.38
2018-12-29T11:50:43.355Z,79.32
2018-12-29T11:52:13.105Z,79.56
2018-12-29T11:53:42.801Z,79.32
2018-12-29T11:55:12.626Z,79.03
2018-12-29T11:56:43.049Z,78.77
2018-12-29T11:58:13.259Z,78.84
2018-12-29T11:59:43.273Z,78.90
2018-12-29T12:01:14.791Z,79.24
2018-12-29T12:02:44.559Z,79.28
2018-12-29T12:04:14.167Z,79.24
2018-12-29T12:05:44.022Z,79.10
2018-12-29T12:07:13.999Z,78.86
2018-12-29T12:08:43.729Z,79.22
2018-12-29T12:10:13.644Z,79.80
2018-12-29T12:11:43.657Z,80.13
2018-12-29T12:13:13.302Z,79.98
2018-12-29T12:14:42.984Z,79.71
2018-12-29T12:16:12.695Z,79.27
2018-12-29T12:17:42.628Z,79.38
2018-12-29T12:19:12.313Z,79.02
2018-12-29T12:20:41.975Z,78.78
2018-12-29T12:22:11.764Z,79.29
2018-12-29T12:23:41.477Z,78.86
2018-12-29T12:25:11.571Z,79.31
2018-12-29T12:26:41.374Z,79.41
2018-12-29T12:28:11.322Z,79.43
2018-12-29T12:29:41.447Z,79.04
2018-12-29T12:31:11.521Z,79.01
2018-12-29T12:32:41.243Z,79.35
2018-12-29T12:34:10.825Z,79.57
2018-12-29T12:35:41.634Z,79.32
2018-12-29T12:37:11.835Z,78.98
2018-12-29T12:38:41.795Z,78.84
2018-12-29T12:40:11.388Z,78.80
2018-12-29T12:41:41.149Z,78.45
2018-12-29T12:43:10.887Z,78.42
2018-12-29T12:44:41.206Z,77.88
2018-12-29T12:46:11.242Z,77.65
2018-12-29T12:47:40.984Z,77.69
2018-12-29T12:49:10.630Z,77.78
2018-12-29T12:50:40.239Z,78.62
2018-12-29T12:52:09.862Z,78.98
2018-12-29T12:53:39.873Z,79.01
2018-12-29T12:55:09.617Z,78.52
2018-12-29T12:56:39.210Z,77.87
2018-12-29T12:58:09.126Z,78.03
2018-12-29T12:59:39.110Z,77.95
2018-12-29T13:01:08.700Z,77.65
2018-12-29T13:02:38.536Z,77.80
2018-12-29T13:04:08.159Z,77.57
2018-12-29T13:05:37.998Z,77.44
2018-12-29T13:07:08.043Z,77.50
2018-12-29T13:08:37.664Z,77.34
2018-12-29T13:10:08.577Z,76.84
2018-12-29T13:11:38.304Z,76.62
2018-12-29T13:13:08.700Z,76.68
2018-12-29T13:14:38.512Z,76.59
2018-12-29T13:16:09.476Z,76.53
2018-12-29T13:17:39.388Z,76.07
2018-12-29T13:19:09.045Z,76.13
2018-12-29T13:20:38.926Z,76.01
2018-12-29T13:22:09.117Z,75.49
2018-12-29T13:23:38.843Z,75.58
2018-12-29T13:25:08.986Z,75.50
2018-12-29T13:26:38.632Z,75.58
2018-12-29T13:28:08.602Z,75.30
2018-12-29T13:29:38.613Z,75.84
2018-12-29T13:31:08.610Z,76.43
2018-12-29T13:32:38.261Z,77.31
2018-12-29T13:34:08.946Z,77.85
2018-12-29T13:35:38.563Z,78.13
2018-12-29T13:37:08.698Z,77.87
2018-12-29T13:38:38.673Z,78.24
2018-12-29T13:40:08.803Z,78.43
2018-12-29T13:41:38.467Z,78.84
2018-12-29T13:43:08.596Z,78.91
2018-12-29T13:44:38.399Z,79.59
2018-12-29T13:46:08.752Z,80.22
2018-12-29T13:47:38.566Z,80.40
2018-12-29T13:49:08.167Z,79.94
2018-12-29T13:50:39.434Z,79.82
2018-12-29T13:52:09.112Z,79.54
2018-12-29T13:53:39.180Z,79.19
2018-12-29T13:55:08.973Z,78.77
2018-12-29T13:56:38.859Z,79.00
2018-12-29T13:58:08.460Z,79.39
2018-12-29T13:59:38.433Z,79.22
2018-12-29T14:01:08.264Z,79.02
2018-12-29T14:02:38.036Z,79.26
2018-12-29T14:04:07.887Z,79.06
2018-12-29T14:05:37.461Z,79.09
2018-12-29T14:07:07.119Z,79.07
2018-12-29T14:08:36.849Z,78.13
2018-12-29T14:10:06.706Z,78.38
2018-12-29T14:11:36.401Z,78.49
2018-12-29T14:13:06.126Z,78.66
2018-12-29T14:14:36.114Z,78.51
2018-12-29T14:16:05.639Z,78.54
2018-12-29T14:17:35.236Z,78.51
2018-12-29T14:19:05.742Z,78.64
2018-12-29T14:20:35.319Z,78.74
2018-12-29T14:22:05.126Z,78.40
2018-12-29T14:23:36.288Z,78.47
2018-12-29T14:25:05.947Z,78.77
2018-12-29T14:26:36.152Z,79.14
2018-12-29T14:28:06.524Z,79.44
2018-12-29T14:29:36.588Z,79.94
2018-12-29T14:31:06.168Z,80.21
2018-12-29T14:32:36.384Z,80.88
2018-12-29T14:34:06.451Z,81.41
2018-12-29T14:40:55.476Z,81.68
2018-12-29T14:42:25.792Z,82.52
2018-12-29T14:43:55.397Z,83.36
2018-12-29T14:45:25.631Z,83.30
2018-12-29T14:46:55.998Z,83.39
2018-12-29T14:48:25.908Z,83.38
2018-12-29T14:49:55.572Z,83.43
2018-12-29T14:51:25.236Z,83.54
2018-12-29T14:52:55.257Z,83.59
2018-12-29T14:54:25.215Z,83.61
2018-12-29T14:55:54.762Z,84.18
2018-12-29T14:57:24.630Z,84.45
2018-12-29T14:58:54.223Z,84.32
2018-12-29T15:00:24.149Z,84.00
2018-12-29T15:01:53.774Z,83.62
2018-12-29T15:03:25.461Z,83.23
2018-12-29T15:04:55.022Z,82.93
2018-12-29T15:06:25.729Z,82.88
2018-12-29T15:07:55.780Z,82.92
2018-12-29T15:09:25.576Z,82.94
2018-12-29T15:10:55.432Z,82.80
2018-12-29T15:12:25.560Z,82.77
2018-12-29T15:13:55.464Z,82.82
2018-12-29T15:15:25.550Z,82.61
2018-12-29T15:16:55.600Z,82.94
2018-12-29T15:18:25.208Z,83.12
2018-12-29T15:19:55.156Z,83.33
2018-12-29T15:21:24.838Z,83.11
2018-12-29T15:22:54.961Z,83.29
2018-12-29T15:24:24.895Z,83.71
2018-12-29T15:25:54.392Z,84.37
2018-12-29T15:27:23.917Z,84.59
2018-12-29T15:28:53.515Z,84.62
2018-12-29T15:30:23.443Z,84.44
2018-12-29T15:31:52.970Z,84.34
2018-12-29T15:33:23.320Z,84.23
2018-12-29T15:34:53.162Z,84.19
2018-12-29T15:36:22.700Z,84.08
2018-12-29T15:37:53.545Z,83.88
2018-12-29T15:39:23.601Z,84.10
2018-12-29T15:40:53.918Z,84.29
2018-12-29T15:42:24.494Z,84.51
2018-12-29T15:43:54.100Z,84.76
2018-12-29T15:45:23.648Z,84.80
2018-12-29T15:46:53.727Z,84.72
2018-12-29T15:48:23.323Z,84.83
2018-12-29T15:49:53.034Z,84.56
2018-12-29T15:51:22.576Z,84.58
2018-12-29T15:52:52.123Z,84.88
2018-12-29T15:54:22.171Z,85.16
2018-12-29T15:55:52.073Z,85.38
2018-12-29T15:57:22.017Z,85.51
2018-12-29T15:59:01.352Z,85.42
2018-12-29T16:00:31.002Z,85.33
2018-12-29T16:02:01.331Z,85.79
2018-12-29T16:03:31.495Z,86.19
2018-12-29T16:05:01.391Z,86.26
2018-12-29T16:06:31.519Z,86.26
2018-12-29T16:08:01.424Z,86.18
2018-12-29T16:09:31.634Z,86.16
2018-12-29T16:11:01.162Z,85.97
2018-12-29T16:12:30.793Z,86.20
2018-12-29T16:14:00.855Z,86.29
2018-12-29T16:15:30.757Z,86.25
2018-12-29T16:17:01.159Z,86.22
2018-12-29T16:18:30.952Z,86.11
2018-12-29T16:20:00.563Z,85.77
2018-12-29T16:21:30.223Z,85.97
2018-12-29T16:23:00.370Z,86.03
2018-12-29T16:24:30.293Z,85.77
2018-12-29T16:25:59.826Z,85.72
2018-12-29T16:27:29.692Z,85.76
2018-12-29T16:28:59.610Z,85.41
2018-12-29T16:30:29.273Z,85.24
2018-12-29T16:31:59.181Z,85.45
2018-12-29T16:33:28.964Z,85.08
2018-12-29T16:34:58.969Z,84.87
2018-12-29T16:36:28.562Z,85.10
2018-12-29T16:37:58.168Z,85.25
2018-12-29T16:39:28.169Z,85.42
2018-12-29T16:40:58.397Z,85.16
2018-12-29T16:42:28.488Z,84.90
2018-12-29T16:43:58.669Z,84.97
2018-12-29T16:45:28.703Z,84.08
2018-12-29T16:46:58.357Z,83.37
2018-12-29T16:48:28.470Z,83.43
2018-12-29T16:49:58.387Z,83.51
2018-12-29T16:51:28.082Z,83.23
2018-12-29T16:52:57.654Z,82.96
2018-12-29T16:54:27.230Z,83.26
2018-12-29T16:55:57.314Z,83.52
2018-12-29T16:57:27.307Z,83.55
2018-12-29T16:58:56.871Z,83.23
2018-12-29T17:00:53.022Z,83.25
2018-12-29T17:02:22.675Z,83.13
2018-12-29T17:03:52.461Z,83.23
2018-12-29T17:05:22.093Z,83.41
2018-12-29T17:06:52.093Z,82.96
2018-12-29T17:08:22.160Z,82.98
2018-12-29T17:09:52.951Z,83.01
2018-12-29T17:11:22.613Z,83.46
2018-12-29T17:12:53.309Z,83.40
2018-12-29T17:14:23.409Z,83.00
2018-12-29T17:15:52.952Z,83.29
2018-12-29T17:17:22.499Z,83.30
2018-12-29T17:18:52.091Z,82.74
2018-12-29T17:20:21.681Z,82.46
2018-12-29T17:21:51.495Z,82.40
2018-12-29T17:23:21.117Z,82.41
2018-12-29T17:24:50.817Z,82.75
2018-12-29T17:26:20.815Z,82.91
2018-12-29T17:27:50.446Z,82.97
2018-12-29T17:29:21.890Z,82.78
2018-12-29T17:30:52.154Z,82.91
2018-12-29T17:32:22.041Z,82.62
2018-12-29T17:33:51.901Z,82.70
2018-12-29T17:35:21.710Z,83.02
2018-12-29T17:36:51.368Z,83.30
2018-12-29T17:38:20.907Z,83.31
2018-12-29T17:39:50.486Z,83.52
2018-12-29T17:41:20.375Z,83.71
2018-12-29T17:42:50.188Z,83.75
2018-12-29T17:44:19.840Z,83.88
2018-12-29T17:48:37.289Z,84.31
2018-12-29T17:50:07.487Z,84.26
2018-12-29T17:51:37.392Z,84.56
2018-12-29T17:53:06.973Z,84.60
2018-12-29T17:54:36.522Z,84.59
2018-12-29T17:56:06.109Z,84.78
2018-12-29T17:57:36.160Z,84.95
2018-12-29T17:59:05.710Z,84.97
2018-12-29T18:00:35.700Z,85.22
2018-12-29T18:02:05.670Z,85.53
2018-12-29T18:03:36.234Z,85.61
2018-12-29T18:05:06.592Z,85.97
2018-12-29T18:06:54.695Z,86.09
2018-12-29T18:08:24.823Z,86.31
2018-12-29T18:10:49.717Z,86.34
2018-12-29T18:12:19.670Z,86.21
2018-12-29T18:13:49.408Z,86.41
2018-12-29T18:15:21.143Z,86.44
2018-12-29T18:16:51.138Z,86.28
2018-12-29T18:18:21.036Z,86.01
2018-12-29T18:19:50.641Z,86.09
2018-12-29T18:21:40.845Z,85.90
2018-12-29T18:23:10.675Z,85.84
2018-12-29T18:24:40.258Z,85.73
2018-12-29T18:26:09.990Z,85.95
2018-12-29T18:27:39.818Z,86.01
2018-12-29T18:29:09.630Z,86.13
2018-12-29T18:30:40.201Z,86.83
2018-12-29T18:32:10.054Z,87.47
2018-12-29T18:33:40.519Z,87.84
2018-12-29T18:35:10.534Z,88.12
2018-12-29T18:36:40.247Z,88.18
2018-12-29T18:38:10.676Z,87.73
2018-12-29T18:39:40.471Z,88.06
2018-12-29T18:41:10.299Z,88.30
2018-12-29T18:42:40.245Z,88.81
2018-12-29T18:44:10.509Z,89.04
2018-12-29T18:45:40.505Z,89.29
2018-12-29T18:47:11.597Z,89.49
2018-12-29T18:48:41.214Z,89.24
2018-12-29T18:50:13.086Z,89.31
2018-12-29T18:51:44.217Z,89.46
2018-12-29T18:53:13.803Z,89.75
2018-12-29T18:54:43.365Z,89.99
2018-12-29T18:56:13.223Z,89.67
2018-12-29T18:57:43.336Z,89.81
2018-12-29T18:59:13.025Z,89.61
2018-12-29T19:00:43.169Z,89.94
2018-12-29T19:02:13.256Z,89.71
2018-12-29T19:03:43.680Z,89.74
2018-12-29T19:05:13.458Z,89.61
2018-12-29T19:06:43.690Z,89.51
2018-12-29T19:08:14.007Z,89.72
2018-12-29T19:09:43.552Z,89.85
2018-12-29T19:11:13.111Z,89.71
2018-12-29T19:12:42.681Z,89.70
2018-12-29T19:14:12.894Z,89.78
2018-12-29T19:15:43.887Z,89.64
2018-12-29T19:17:13.597Z,89.23
2018-12-29T19:18:43.648Z,89.05
2018-12-29T19:20:14.284Z,89.41
2018-12-29T19:21:44.219Z,89.28
2018-12-29T19:23:13.741Z,89.19
2018-12-29T19:24:43.642Z,89.19
2018-12-29T19:26:13.301Z,89.27
2018-12-29T19:27:43.530Z,89.07
2018-12-29T19:29:13.925Z,89.11
2018-12-29T19:30:43.488Z,89.19
2018-12-29T19:32:14.333Z,89.37
2018-12-29T19:33:44.816Z,88.96
2018-12-29T19:35:14.834Z,88.58
2018-12-29T19:36:44.416Z,88.78
2018-12-29T19:38:14.346Z,88.64
2018-12-29T19:39:44.244Z,88.90
2018-12-29T19:41:13.986Z,88.55
2018-12-29T19:42:43.918Z,88.32
2018-12-29T19:44:13.575Z,88.55
2018-12-29T19:45:44.023Z,88.24